Time;durP1;ratioP1;P1;durP2;ratioP2;P2;SDS_P1;SDS_P2;PMS_P1;PMS_P2;Temp;Humidity;BMP_temperature;BMP_pressure;BME280_temperature;BME280_humidity;BME280_pressure;Samples;Min_cycle;Max_cycle;Signal;HPM_P1;HPM_P2
2023/04/07 00:00:25;;;;;;;20.40;16.95;;;9.00;99.90;;;;;;6044138;23;92467;-74
2023/04/07 00:02:53;;;;;;;19.63;16.10;;;9.00;99.90;;;;;;6094574;23;92389;-74
2023/04/07 00:05:20;;;;;;;20.10;16.02;;;9.00;99.90;;;;;;6094757;23;93279;-74
2023/04/07 00:07:47;;;;;;;16.90;13.20;;;9.00;99.90;;;;;;6068516;23;92799;-74
2023/04/07 00:10:22;;;;;;;19.15;16.23;;;9.00;99.90;;;;;;6070594;23;92411;-74
2023/04/07 00:12:49;;;;;;;19.63;16.00;;;9.00;99.90;;;;;;6097094;23;104871;-74
2023/04/07 00:15:16;;;;;;;18.60;15.18;;;9.00;99.90;;;;;;6097847;23;93227;-75
2023/04/07 00:17:43;;;;;;;21.67;15.75;;;9.00;99.90;;;;;;6097264;23;95322;-74
2023/04/07 00:20:10;;;;;;;18.27;14.20;;;9.00;99.90;;;;;;6069847;23;94841;-74
2023/04/07 00:22:37;;;;;;;16.50;14.30;;;9.00;99.90;;;;;;6072479;23;92475;-74
2023/04/07 00:25:05;;;;;;;22.45;15.88;;;9.00;99.90;;;;;;6097375;23;93117;-74
2023/04/07 00:27:32;;;;;;;20.67;17.02;;;9.00;99.90;;;;;;6097920;23;92916;-74
2023/04/07 00:29:59;;;;;;;21.70;17.98;;;9.00;99.90;;;;;;6071786;23;92388;-74
2023/04/07 00:32:26;;;;;;;20.25;15.05;;;9.10;99.90;;;;;;6071985;23;92460;-74
2023/04/07 00:34:53;;;;;;;18.88;16.63;;;9.00;99.90;;;;;;6071132;23;96486;-74
2023/04/07 00:37:20;;;;;;;19.75;15.93;;;9.00;99.90;;;;;;6072206;23;93084;-74
2023/04/07 00:39:47;;;;;;;18.85;16.20;;;9.00;99.90;;;;;;6047100;23;92509;-74
2023/04/07 00:42:14;;;;;;;20.33;14.93;;;9.10;99.90;;;;;;6071359;23;92519;-74
2023/04/07 00:44:41;;;;;;;21.58;16.13;;;9.10;99.90;;;;;;6096017;23;95511;-74
2023/04/07 00:47:08;;;;;;;23.10;17.63;;;9.10;99.90;;;;;;6070965;23;96710;-74
2023/04/07 00:49:36;;;;;;;16.83;14.02;;;9.10;99.90;;;;;;6097697;23;92315;-74
2023/04/07 00:52:05;;;;;;;20.05;15.07;;;9.00;99.90;;;;;;6097655;23;92384;-74
2023/04/07 00:54:32;;;;;;;19.33;15.07;;;9.00;99.90;;;;;;6071641;23;93195;-74
2023/04/07 00:57:00;;;;;;;18.13;15.18;;;8.90;99.90;;;;;;6046896;23;95584;-74
2023/04/07 00:59:30;;;;;;;22.38;17.73;;;9.00;99.90;;;;;;6097553;23;92330;-74
2023/04/07 01:02:03;;;;;;;19.13;13.98;;;9.00;99.90;;;;;;6071709;23;92220;-74
2023/04/07 01:04:43;;;;;;;20.73;16.00;;;9.00;99.90;;;;;;6070994;23;95720;-74
2023/04/07 01:07:17;;;;;;;21.73;15.98;;;9.00;99.90;;;;;;6070901;23;95734;-74
2023/04/07 01:09:59;;;;;;;21.92;17.13;;;9.00;99.90;;;;;;6069593;23;94919;-74
2023/04/07 01:12:50;;;;;;;19.38;16.83;;;9.00;99.90;;;;;;6071103;23;92685;-74
2023/04/07 01:15:23;;;;;;;20.52;16.88;;;9.00;99.90;;;;;;6047328;23;95590;-74
2023/04/07 01:18:00;;;;;;;20.40;17.65;;;9.00;99.90;;;;;;6096963;23;92942;-74
2023/04/07 01:20:31;;;;;;;18.85;14.05;;;9.10;99.90;;;;;;6071262;23;92421;-74
2023/04/07 01:23:05;;;;;;;23.70;17.90;;;9.00;99.90;;;;;;6046302;23;92439;-74
2023/04/07 01:25:57;;;;;;;20.13;17.25;;;9.10;99.90;;;;;;6069536;23;95378;-74
2023/04/07 01:28:42;;;;;;;19.45;15.73;;;9.10;99.90;;;;;;6069327;23;93942;-74
2023/04/07 01:31:12;;;;;;;22.00;18.20;;;9.10;99.90;;;;;;6069067;23;92514;-74
2023/04/07 01:33:43;;;;;;;21.52;17.15;;;9.10;99.90;;;;;;6044967;23;92558;-74
2023/04/07 01:36:11;;;;;;;21.15;17.45;;;9.10;99.90;;;;;;6067732;23;95617;-74
2023/04/07 01:38:39;;;;;;;16.33;14.52;;;9.10;99.90;;;;;;6068920;23;97882;-74
2023/04/07 01:41:08;;;;;;;21.05;17.05;;;9.00;99.90;;;;;;6095009;23;95195;-74
2023/04/07 01:43:38;;;;;;;20.45;16.38;;;9.00;99.90;;;;;;6069101;23;92465;-74
2023/04/07 01:46:05;;;;;;;19.67;16.17;;;9.00;99.90;;;;;;6068525;23;95622;-74
2023/04/07 01:48:35;;;;;;;20.23;15.73;;;9.00;99.90;;;;;;6069143;23;95507;-74
2023/04/07 01:51:05;;;;;;;15.88;13.98;;;9.00;99.90;;;;;;6069297;23;92983;-74
2023/04/07 01:53:36;;;;;;;23.13;18.83;;;9.00;99.90;;;;;;6069728;23;91747;-74
2023/04/07 01:56:04;;;;;;;22.42;17.58;;;9.00;99.90;;;;;;6045853;23;95705;-74
2023/04/07 01:58:34;;;;;;;21.50;17.90;;;9.00;99.90;;;;;;6045636;23;95436;-74
2023/04/07 02:01:03;;;;;;;22.42;18.60;;;9.00;99.90;;;;;;6067135;23;94890;-74
2023/04/07 02:03:33;;;;;;;24.73;18.60;;;9.00;99.90;;;;;;6069207;23;92430;-74
2023/04/07 02:06:06;;;;;;;22.83;17.40;;;9.10;99.90;;;;;;6069249;23;93160;-74
2023/04/07 02:08:41;;;;;;;25.52;19.48;;;9.10;99.90;;;;;;6044890;23;94913;-74
2023/04/07 02:11:11;;;;;;;23.88;18.55;;;9.10;99.90;;;;;;6069107;23;92383;-74
2023/04/07 02:13:41;;;;;;;26.40;19.20;;;9.10;99.90;;;;;;6045577;23;92804;-74
2023/04/07 02:16:11;;;;;;;25.75;18.45;;;9.10;99.90;;;;;;6045447;23;95740;-74
2023/04/07 02:18:39;;;;;;;34.35;24.20;;;9.00;99.90;;;;;;6095126;23;93057;-74
2023/04/07 02:21:07;;;;;;;23.77;18.00;;;9.00;99.90;;;;;;6068723;23;92989;-74
2023/04/07 02:23:35;;;;;;;28.85;21.75;;;9.00;99.90;;;;;;6069644;23;92544;-74
2023/04/07 02:26:02;;;;;;;30.92;22.02;;;9.00;99.90;;;;;;6043160;23;98038;-74
2023/04/07 02:28:29;;;;;;;28.08;22.10;;;9.00;99.90;;;;;;6068761;23;98208;-74
2023/04/07 02:30:56;;;;;;;28.13;22.13;;;9.00;99.90;;;;;;6069479;23;92320;-74
2023/04/07 02:33:23;;;;;;;28.38;21.08;;;9.00;99.90;;;;;;6068768;23;92467;-74
2023/04/07 02:35:50;;;;;;;27.05;20.48;;;9.00;99.90;;;;;;6043891;23;95778;-74
2023/04/07 02:38:17;;;;;;;31.63;23.38;;;8.90;99.90;;;;;;6069005;23;93053;-74
2023/04/07 02:40:44;;;;;;;28.73;20.75;;;8.90;99.90;;;;;;6068882;23;92412;-74
2023/04/07 02:43:11;;;;;;;29.95;22.58;;;8.90;99.90;;;;;;6069212;23;91737;-74
2023/04/07 02:45:38;;;;;;;31.42;21.75;;;9.00;99.90;;;;;;6044779;23;95679;-74
2023/04/07 02:48:05;;;;;;;28.58;22.70;;;9.00;99.90;;;;;;6068760;23;95521;-74
2023/04/07 02:50:32;;;;;;;28.90;20.02;;;9.00;99.90;;;;;;6043348;23;94792;-74
2023/04/07 02:52:59;;;;;;;25.33;19.42;;;9.00;99.90;;;;;;6069023;23;92428;-74
2023/04/07 02:55:26;;;;;;;26.55;20.65;;;8.90;99.90;;;;;;6094846;23;93069;-74
2023/04/07 02:57:52;;;;;;;24.92;19.15;;;8.90;99.90;;;;;;6020960;23;95328;-74
2023/04/07 03:00:31;;;;;;;30.08;21.27;;;8.90;99.90;;;;;;6068461;23;92464;-74
2023/04/07 03:03:06;;;;;;;29.17;22.17;;;8.90;99.90;;;;;;6046769;23;93197;-74
2023/04/07 03:05:36;;;;;;;27.45;20.42;;;8.80;99.90;;;;;;6068452;23;95477;-74
2023/04/07 03:08:04;;;;;;;29.17;21.15;;;8.80;99.90;;;;;;6069035;23;95575;-74
2023/04/07 03:10:31;;;;;;;28.75;22.48;;;8.90;99.90;;;;;;6044489;23;92443;-74
2023/04/07 03:12:58;;;;;;;29.55;21.92;;;8.90;99.90;;;;;;6044813;23;92542;-74
2023/04/07 03:15:26;;;;;;;30.65;22.48;;;8.80;99.90;;;;;;6066749;23;97869;-74
2023/04/07 03:17:54;;;;;;;30.42;22.00;;;8.80;99.90;;;;;;6044477;23;97263;-74
2023/04/07 03:20:22;;;;;;;29.60;21.98;;;8.80;99.90;;;;;;6092759;23;92390;-74
2023/04/07 03:22:49;;;;;;;25.13;18.45;;;8.80;99.90;;;;;;6044769;23;92483;-74
2023/04/07 03:25:25;;;;;;;21.48;16.58;;;8.80;99.90;;;;;;6045972;23;95413;-74
2023/04/07 03:27:53;;;;;;;22.40;16.73;;;8.70;99.90;;;;;;6044655;23;93848;-74
2023/04/07 03:30:20;;;;;;;28.73;21.92;;;8.60;99.90;;;;;;6094782;23;92422;-74
2023/04/07 03:32:47;;;;;;;29.38;20.65;;;8.70;99.90;;;;;;6069206;23;91760;-74
2023/04/07 03:35:14;;;;;;;29.63;22.20;;;8.70;99.90;;;;;;6068489;23;95891;-74
2023/04/07 03:37:43;;;;;;;29.75;21.77;;;8.70;99.90;;;;;;6068468;23;95319;-74
2023/04/07 03:40:14;;;;;;;33.88;22.80;;;8.80;99.90;;;;;;6043879;23;94913;-74
2023/04/07 03:42:42;;;;;;;29.85;23.48;;;8.80;99.90;;;;;;6044851;23;92423;-74
2023/04/07 03:45:11;;;;;;;30.60;21.70;;;8.90;99.90;;;;;;6044725;23;95152;-74
2023/04/07 03:47:43;;;;;;;29.23;21.92;;;8.80;99.90;;;;;;6068370;23;95976;-74
2023/04/07 03:50:10;;;;;;;29.67;21.85;;;8.90;99.90;;;;;;6044558;23;92448;-74
2023/04/07 03:52:48;;;;;;;26.45;20.45;;;8.90;99.90;;;;;;6068597;23;92525;-74
2023/04/07 03:55:24;;;;;;;28.55;20.25;;;8.90;99.90;;;;;;6068355;23;96038;-74
2023/04/07 03:57:56;;;;;;;28.83;21.08;;;8.80;99.90;;;;;;6046049;23;95216;-74
2023/04/07 04:00:27;;;;;;;26.67;19.73;;;8.80;99.90;;;;;;6068577;23;93086;-74
2023/04/07 04:03:04;;;;;;;25.45;18.00;;;8.80;99.90;;;;;;6068622;23;92625;-74
2023/04/07 04:05:33;;;;;;;28.40;21.83;;;8.80;99.90;;;;;;6066459;23;97936;-74
2023/04/07 04:08:00;;;;;;;30.27;21.33;;;8.80;99.90;;;;;;6044013;23;97528;-74
2023/04/07 04:10:27;;;;;;;28.45;21.50;;;8.80;99.90;;;;;;6044144;23;92381;-74
2023/04/07 04:12:54;;;;;;;28.67;20.45;;;8.80;99.90;;;;;;6093055;23;92757;-74
2023/04/07 04:15:21;;;;;;;25.92;19.38;;;8.80;99.90;;;;;;6094534;23;92988;-74
2023/04/07 04:17:49;;;;;;;27.85;21.08;;;8.80;99.90;;;;;;6092506;23;95446;-74
2023/04/07 04:20:17;;;;;;;28.50;20.48;;;8.90;99.90;;;;;;6067797;23;92380;-74
2023/04/07 04:22:48;;;;;;;27.77;20.60;;;8.90;99.90;;;;;;6069744;23;91720;-74
2023/04/07 04:25:16;;;;;;;29.58;21.98;;;8.80;99.90;;;;;;6044162;23;95776;-74
2023/04/07 04:27:47;;;;;;;29.52;21.35;;;8.80;99.90;;;;;;6068290;23;95444;-74
2023/04/07 04:30:21;;;;;;;32.38;24.30;;;8.80;99.90;;;;;;6066772;23;94896;-74
2023/04/07 04:33:01;;;;;;;27.30;19.33;;;8.80;99.90;;;;;;6068577;23;92462;-74
2023/04/07 04:35:52;;;;;;;31.70;22.77;;;8.70;99.90;;;;;;6046381;23;93919;-74
2023/04/07 04:38:20;;;;;;;31.10;23.38;;;8.70;99.90;;;;;;6068613;23;92953;-74
2023/04/07 04:41:19;;;;;;;29.98;22.00;;;8.70;99.90;;;;;;6075629;23;92320;-74
2023/04/07 04:43:48;;;;;;;31.83;22.33;;;8.70;99.90;;;;;;6068092;23;92556;-74
2023/04/07 04:46:20;;;;;;;31.63;23.35;;;8.70;99.90;;;;;;6068096;23;95397;-74
2023/04/07 04:48:48;;;;;;;31.92;22.33;;;8.70;99.90;;;;;;6044540;23;95325;-74
2023/04/07 04:51:17;;;;;;;31.52;21.10;;;8.70;99.90;;;;;;6044175;23;92439;-74
2023/04/07 04:53:47;;;;;;;30.00;21.67;;;8.70;99.90;;;;;;6068428;23;92473;-74
2023/04/07 04:56:15;;;;;;;30.25;22.95;;;8.70;99.90;;;;;;6066052;23;97616;-74
2023/04/07 04:58:45;;;;;;;28.33;20.55;;;8.60;99.90;;;;;;6068453;23;97082;-74
2023/04/07 05:01:23;;;;;;;26.85;18.00;;;8.60;99.90;;;;;;6068935;23;92506;-74
2023/04/07 05:03:57;;;;;;;30.97;21.50;;;8.60;99.90;;;;;;6069613;23;93220;-74
2023/04/07 05:06:27;;;;;;;29.98;21.75;;;8.60;99.90;;;;;;6069220;23;96020;-74
2023/04/07 05:08:59;;;;;;;29.98;21.17;;;8.70;99.90;;;;;;6069364;23;95367;-74
2023/04/07 05:11:31;;;;;;;33.75;25.40;;;8.60;99.90;;;;;;6046284;23;92463;-74
2023/04/07 05:13:58;;;;;;;34.00;23.63;;;8.70;99.90;;;;;;6045678;23;91716;-74
2023/04/07 05:16:25;;;;;;;31.60;23.42;;;8.70;99.90;;;;;;6068741;23;95603;-74
2023/04/07 05:18:53;;;;;;;31.42;24.27;;;8.70;99.90;;;;;;6045748;23;95166;-74
2023/04/07 05:21:21;;;;;;;28.08;20.67;;;8.70;99.90;;;;;;6067608;23;94910;-74
2023/04/07 05:23:50;;;;;;;33.88;24.98;;;8.70;99.90;;;;;;6069397;23;92455;-74
2023/04/07 05:26:20;;;;;;;30.45;22.33;;;8.60;99.90;;;;;;6069011;23;95927;-74
2023/04/07 05:28:50;;;;;;;33.67;22.95;;;8.70;99.90;;;;;;6045587;23;96467;-74
2023/04/07 05:31:20;;;;;;;32.22;24.00;;;8.70;99.90;;;;;;6069618;23;92968;-74
2023/04/07 05:33:50;;;;;;;32.17;21.65;;;8.70;99.90;;;;;;6069779;23;92949;-74
2023/04/07 05:36:21;;;;;;;30.73;24.45;;;8.70;99.90;;;;;;6069106;23;95047;-74
2023/04/07 05:38:50;;;;;;;33.53;22.27;;;8.70;99.90;;;;;;6069075;23;93987;-75
2023/04/07 05:41:18;;;;;;;28.10;21.05;;;8.70;99.90;;;;;;6069242;23;92640;-75
2023/04/07 05:43:45;;;;;;;27.92;21.23;;;8.70;99.90;;;;;;6044958;23;92471;-75
2023/04/07 05:46:13;;;;;;;30.77;21.75;;;8.70;99.90;;;;;;6067428;23;97087;-75
2023/04/07 05:48:49;;;;;;;28.45;20.67;;;8.70;99.90;;;;;;6046438;23;97744;-75
2023/04/07 05:51:17;;;;;;;26.55;19.90;;;8.80;99.90;;;;;;6045198;23;92930;-75
2023/04/07 05:53:44;;;;;;;27.58;21.15;;;8.80;99.90;;;;;;6069017;23;92444;-75
2023/04/07 05:56:11;;;;;;;24.33;19.60;;;8.80;99.90;;;;;;6044905;23;95411;-75
2023/04/07 05:58:45;;;;;;;27.70;20.15;;;8.80;99.90;;;;;;6068937;23;95217;-75
2023/04/07 06:01:13;;;;;;;26.15;20.55;;;8.90;99.90;;;;;;6045178;23;92504;-75
2023/04/07 06:03:41;;;;;;;27.88;21.08;;;8.90;99.90;;;;;;6069326;23;91730;-75
2023/04/07 06:06:14;;;;;;;28.52;20.77;;;9.00;99.90;;;;;;6045938;23;95737;-75
2023/04/07 06:08:41;;;;;;;25.23;19.92;;;9.10;99.90;;;;;;6044416;23;95577;-75
2023/04/07 06:11:08;;;;;;;24.75;19.58;;;9.10;99.90;;;;;;6093835;23;94797;-75
2023/04/07 06:13:35;;;;;;;27.80;19.92;;;9.10;99.90;;;;;;6044618;23;92471;-75
2023/04/07 06:16:02;;;;;;;26.17;19.70;;;9.10;99.90;;;;;;6068819;23;95804;-75
2023/04/07 06:18:29;;;;;;;25.17;20.30;;;9.20;99.90;;;;;;6068554;23;94736;-75
2023/04/07 06:20:57;;;;;;;25.58;19.80;;;9.30;99.90;;;;;;6069010;23;92379;-75
2023/04/07 06:23:25;;;;;;;25.17;18.95;;;9.40;99.90;;;;;;6069097;23;92453;-75
2023/04/07 06:25:52;;;;;;;25.63;18.80;;;9.40;99.90;;;;;;6044867;23;95568;-75
2023/04/07 06:28:19;;;;;;;25.70;20.30;;;9.40;99.90;;;;;;6095918;23;92808;-75
2023/04/07 06:30:47;;;;;;;25.38;20.50;;;9.40;99.90;;;;;;6044755;23;92365;-75
2023/04/07 06:33:15;;;;;;;28.30;20.02;;;9.50;99.90;;;;;;6045008;23;92468;-75
2023/04/07 06:35:42;;;;;;;26.67;22.35;;;9.50;99.90;;;;;;6093463;23;95558;-75
2023/04/07 06:38:10;;;;;;;26.27;19.65;;;9.70;99.90;;;;;;6095260;23;95403;-75
2023/04/07 06:40:37;;;;;;;25.25;19.02;;;9.70;99.90;;;;;;6095024;23;92376;-75
2023/04/07 06:43:05;;;;;;;24.08;17.95;;;9.70;99.90;;;;;;6094976;23;96439;-75
2023/04/07 06:45:40;;;;;;;24.50;18.50;;;9.80;99.90;;;;;;6068768;23;94290;-75
2023/04/07 06:48:07;;;;;;;22.48;18.00;;;9.90;99.90;;;;;;6044593;23;95544;-75
2023/04/07 06:50:34;;;;;;;21.98;18.00;;;10.00;99.90;;;;;;6095194;23;92384;-75
2023/04/07 06:53:01;;;;;;;18.75;16.00;;;10.10;99.90;;;;;;6095753;23;91708;-75
2023/04/07 06:55:28;;;;;;;17.98;14.85;;;10.10;99.90;;;;;;6095338;23;93239;-75
2023/04/07 06:57:55;;;;;;;19.52;15.98;;;10.10;99.90;;;;;;6094820;23;93424;-75
2023/04/07 07:00:22;;;;;;;19.13;14.30;;;10.20;99.90;;;;;;6068090;23;94983;-75
2023/04/07 07:02:49;;;;;;;19.02;15.98;;;10.30;99.90;;;;;;6044416;23;92443;-75
2023/04/07 07:05:16;;;;;;;18.98;16.90;;;10.30;99.90;;;;;;6069146;23;92369;-75
2023/04/07 07:07:43;;;;;;;17.33;15.02;;;10.40;99.90;;;;;;6094743;23;93036;-75
2023/04/07 07:10:10;;;;;;;21.90;16.52;;;10.50;99.90;;;;;;6095471;23;92542;-75
2023/04/07 07:12:37;;;;;;;19.63;15.48;;;10.60;99.90;;;;;;6044913;23;92508;-75
2023/04/07 07:15:05;;;;;;;18.98;16.73;;;10.70;99.90;;;;;;6068626;23;104940;-75
2023/04/07 07:17:32;;;;;;;20.55;15.77;;;10.80;99.90;;;;;;6044639;23;95477;-75
2023/04/07 07:19:59;;;;;;;18.50;16.10;;;10.80;99.90;;;;;;6095177;23;92688;-75
2023/04/07 07:22:26;;;;;;;17.67;14.88;;;10.90;99.90;;;;;;6044416;23;92444;-75
2023/04/07 07:24:53;;;;;;;18.58;15.88;;;10.90;99.90;;;;;;6067366;23;97316;-75
2023/04/07 07:27:20;;;;;;;20.35;15.48;;;11.00;99.90;;;;;;6069026;23;95223;-74
2023/04/07 07:29:46;;;;;;;21.83;15.50;;;11.10;99.90;;;;;;6094961;23;92756;-75
2023/04/07 07:32:13;;;;;;;16.85;13.32;;;11.10;99.90;;;;;;6095110;23;92413;-75
2023/04/07 07:34:40;;;;;;;18.33;16.20;;;11.10;99.90;;;;;;6094808;23;97471;-75
2023/04/07 07:37:07;;;;;;;18.23;14.63;;;11.20;99.90;;;;;;6094866;23;96342;-75
2023/04/07 07:39:34;;;;;;;16.95;15.10;;;11.20;99.90;;;;;;6094898;23;93159;-75
2023/04/07 07:42:01;;;;;;;17.67;15.32;;;11.20;99.90;;;;;;6095171;23;91947;-75
2023/04/07 07:44:28;;;;;;;16.33;13.82;;;11.20;99.90;;;;;;6094794;23;93056;-75
2023/04/07 07:46:57;;;;;;;20.33;17.13;;;11.30;99.90;;;;;;6069158;23;93032;-75
2023/04/07 07:49:24;;;;;;;19.65;17.42;;;11.30;99.90;;;;;;6067652;23;94852;-75
2023/04/07 07:51:51;;;;;;;20.92;16.08;;;11.40;99.90;;;;;;6094621;23;92426;-75
2023/04/07 07:54:18;;;;;;;21.30;17.17;;;11.30;99.90;;;;;;6068373;23;94555;-75
2023/04/07 07:56:45;;;;;;;23.75;20.55;;;11.30;99.90;;;;;;6043984;23;94792;-75
2023/04/07 07:59:12;;;;;;;22.35;19.80;;;11.40;99.90;;;;;;6044378;23;92496;-75
2023/04/07 08:01:40;;;;;;;22.42;19.67;;;11.30;99.90;;;;;;6094753;23;92438;-75
2023/04/07 08:04:07;;;;;;;23.02;19.73;;;11.40;99.90;;;;;;6094367;23;93852;-75
2023/04/07 08:06:36;;;;;;;21.42;18.38;;;11.50;99.90;;;;;;6044879;23;94040;-75
2023/04/07 08:09:04;;;;;;;23.67;19.92;;;11.60;99.90;;;;;;6094500;23;92492;-75
2023/04/07 08:11:31;;;;;;;25.25;19.90;;;11.70;99.90;;;;;;6068494;23;92535;-75
2023/04/07 08:13:58;;;;;;;24.55;19.73;;;11.80;99.90;;;;;;6092938;23;95549;-75
2023/04/07 08:16:26;;;;;;;23.77;20.15;;;11.90;99.90;;;;;;6043265;23;109677;-75
2023/04/07 08:18:53;;;;;;;22.20;18.17;;;11.80;99.90;;;;;;6094097;23;92403;-75
2023/04/07 08:21:19;;;;;;;22.70;19.75;;;11.80;99.90;;;;;;6044212;23;92421;-74
2023/04/07 08:23:47;;;;;;;22.92;18.88;;;11.80;99.90;;;;;;6068313;23;93131;-75
2023/04/07 08:26:14;;;;;;;21.50;19.23;;;11.80;99.90;;;;;;6094506;23;93146;-75
2023/04/07 08:28:41;;;;;;;24.33;19.80;;;11.90;99.90;;;;;;6068792;23;92353;-75
2023/04/07 08:31:08;;;;;;;20.27;17.67;;;11.90;99.90;;;;;;6094687;23;91684;-75
2023/04/07 08:33:35;;;;;;;22.80;19.13;;;12.00;99.90;;;;;;6095288;23;93245;-75
2023/04/07 08:36:02;;;;;;;21.00;17.88;;;12.00;99.90;;;;;;6069533;23;92991;-75
2023/04/07 08:38:30;;;;;;;21.55;17.83;;;12.10;99.90;;;;;;6068091;23;94697;-75
2023/04/07 08:41:09;;;;;;;20.35;18.13;;;12.30;99.90;;;;;;6069974;23;92374;-75
2023/04/07 08:43:37;;;;;;;18.17;15.60;;;12.50;99.90;;;;;;6095609;23;93109;-75
2023/04/07 08:46:08;;;;;;;23.02;17.58;;;12.50;99.90;;;;;;6068953;23;95732;-75
2023/04/07 08:48:37;;;;;;;19.02;17.05;;;12.50;99.90;;;;;;6095760;23;92488;-75
2023/04/07 08:51:07;;;;;;;18.52;16.35;;;12.50;99.90;;;;;;6045057;23;92579;-75
2023/04/07 08:53:41;;;;;;;16.60;14.73;;;12.40;99.90;;;;;;6044985;23;94469;-75
2023/04/07 08:56:10;;;;;;;;;;;12.30;99.90;;;;;;6096307;23;93407;-75
2023/04/07 08:58:37;;;;;;;17.35;15.55;;;12.20;99.90;;;;;;6097790;23;92305;-75
2023/04/07 09:01:05;;;;;;;17.02;14.88;;;12.20;99.90;;;;;;6095545;23;92792;-75
2023/04/07 09:03:33;;;;;;;17.10;15.38;;;12.30;99.90;;;;;;6067901;23;95695;-75
2023/04/07 09:06:01;;;;;;;16.52;14.40;;;12.40;99.90;;;;;;6095080;23;95367;-75
2023/04/07 09:08:28;;;;;;;16.33;14.65;;;12.50;99.90;;;;;;6045138;23;92653;-75
2023/04/07 09:10:56;;;;;;;16.70;14.88;;;12.70;99.90;;;;;;6069451;23;92463;-75
2023/04/07 09:13:24;;;;;;;15.32;13.73;;;12.70;99.90;;;;;;6095619;23;93867;-75
2023/04/07 09:15:51;;;;;;;14.88;12.85;;;12.70;99.90;;;;;;6069104;23;95663;-75
2023/04/07 09:18:18;;;;;;;13.63;12.23;;;12.60;99.90;;;;;;6069180;23;92396;-75
2023/04/07 09:21:02;;;;;;;15.40;13.27;;;12.60;99.90;;;;;;6096131;23;92007;-75
2023/04/07 09:23:31;;;;;;;14.07;12.23;;;12.60;99.90;;;;;;6069396;23;95548;-75
2023/04/07 09:26:00;;;;;;;16.15;14.55;;;12.60;99.90;;;;;;6095422;23;92936;-75
2023/04/07 09:28:41;;;;;;;14.55;13.07;;;12.70;99.90;;;;;;6068328;23;94773;-75
2023/04/07 09:31:08;;;;;;;11.85;10.60;;;13.00;99.90;;;;;;6095340;23;92376;-75
2023/04/07 09:33:35;;;;;;;13.57;12.13;;;13.10;99.90;;;;;;6069626;23;93112;-75
2023/04/07 09:36:05;;;;;;;13.88;12.48;;;13.40;99.90;;;;;;6068734;23;95610;-75
2023/04/07 09:38:33;;;;;;;16.17;13.90;;;13.50;99.90;;;;;;6095602;23;92442;-75
2023/04/07 09:41:10;;;;;;;14.85;13.35;;;13.70;99.90;;;;;;6095259;23;92498;-75
2023/04/07 09:43:40;;;;;;;14.00;12.23;;;13.80;99.90;;;;;;6095244;23;93252;-75
2023/04/07 09:46:15;;;;;;;14.00;12.55;;;13.80;99.90;;;;;;6044405;23;107446;-75
2023/04/07 09:48:44;;;;;;;14.35;13.02;;;14.00;99.90;;;;;;6095601;23;92489;-75
2023/04/07 09:51:16;;;;;;;14.73;13.10;;;14.10;99.90;;;;;;6094845;23;99761;-75
2023/04/07 09:53:48;;;;;;;12.88;11.15;;;14.20;99.90;;;;;;6093722;23;95597;-75
2023/04/07 09:56:17;;;;;;;14.35;12.10;;;14.30;99.90;;;;;;6095018;23;95221;-75
2023/04/07 09:58:46;;;;;;;13.23;11.82;;;14.30;99.90;;;;;;6068965;23;92569;-75
2023/04/07 10:01:15;;;;;;;12.35;11.05;;;14.40;99.90;;;;;;6069139;23;92945;-75
2023/04/07 10:03:45;;;;;;;12.90;11.48;;;14.40;99.90;;;;;;6069389;23;93235;-75
2023/04/07 10:06:12;;;;;;;14.20;12.80;;;14.30;99.90;;;;;;6095031;23;92930;-75
2023/04/07 10:08:41;;;;;;;13.35;12.05;;;14.30;99.90;;;;;;6095431;23;92309;-75
2023/04/07 10:11:09;;;;;;;13.35;11.88;;;14.50;99.90;;;;;;6095574;23;91711;-75
2023/04/07 10:13:39;;;;;;;12.73;11.45;;;14.50;99.90;;;;;;6069330;23;93220;-75
2023/04/07 10:16:06;;;;;;;12.27;11.02;;;14.60;99.90;;;;;;6069194;23;92985;-75
2023/04/07 10:18:35;;;;;;;12.35;11.18;;;14.60;99.90;;;;;;6067649;23;95433;-75
2023/04/07 10:21:06;;;;;;;12.15;10.98;;;14.60;99.90;;;;;;6095090;23;92425;-75
2023/04/07 10:23:47;;;;;;;13.15;11.75;;;14.70;99.90;;;;;;6069266;23;93064;-75
2023/04/07 10:26:18;;;;;;;11.45;10.32;;;14.80;99.90;;;;;;6094824;23;92450;-75
2023/04/07 10:28:49;;;;;;;10.38;9.38;;;14.90;99.90;;;;;;6095356;23;92360;-75
2023/04/07 10:31:16;;;;;;;10.48;9.45;;;15.10;99.90;;;;;;6070072;23;92479;-75
2023/04/07 10:33:46;;;;;;;8.77;7.88;;;15.40;99.90;;;;;;6095682;23;101692;-75
2023/04/07 10:36:13;;;;;;;9.07;8.27;;;15.40;99.90;;;;;;6095968;23;92925;-75
2023/04/07 10:38:41;;;;;;;12.35;9.90;;;15.40;99.90;;;;;;6096284;23;92416;-75
2023/04/07 10:41:36;;;;;;;9.95;8.98;;;15.40;99.90;;;;;;6095626;23;92369;-75
2023/04/07 10:44:08;;;;;;;9.68;8.73;;;15.40;99.90;;;;;;6067713;23;96566;-75
2023/04/07 10:46:44;;;;;;;9.50;8.70;;;15.30;99.90;;;;;;6069773;23;95341;-75
2023/04/07 10:49:12;;;;;;;9.73;8.80;;;15.50;99.90;;;;;;6069758;23;92346;-75
2023/04/07 10:51:40;;;;;;;26.75;11.50;;;15.60;99.90;;;;;;6069467;23;92478;-75
2023/04/07 10:54:16;;;;;;;9.80;8.88;;;15.60;99.90;;;;;;6068528;23;95816;-75
2023/04/07 10:57:01;;;;;;;12.00;9.10;;;15.80;99.90;;;;;;6094994;23;92947;-75
2023/04/07 10:59:29;;;;;;;7.93;6.50;;;16.10;99.70;;;;;;6095594;23;92313;-75
2023/04/07 11:02:11;;;;;;;7.70;7.00;;;16.00;99.00;;;;;;6070402;23;91806;-75
2023/04/07 11:04:41;;;;;;;8.60;7.80;;;16.00;98.70;;;;;;6095622;23;95301;-75
2023/04/07 11:07:09;;;;;;;8.00;7.30;;;16.00;98.90;;;;;;6069027;23;95843;-75
2023/04/07 11:09:36;;;;;;;9.38;7.88;;;15.90;98.90;;;;;;6068861;23;94817;-75
2023/04/07 11:12:03;;;;;;;9.43;8.52;;;16.00;98.50;;;;;;6096058;23;92408;-75
2023/04/07 11:14:32;;;;;;;9.30;8.40;;;16.00;98.30;;;;;;6095646;23;93153;-75
2023/04/07 11:17:02;;;;;;;9.38;8.48;;;16.00;98.10;;;;;;6095054;23;92899;-75
2023/04/07 11:19:31;;;;;;;10.15;8.68;;;15.90;98.00;;;;;;6095604;23;92359;-75
2023/04/07 11:22:16;;;;;;;9.05;8.23;;;15.70;98.70;;;;;;6069430;23;93048;-75
2023/04/07 11:24:55;;;;;;;8.70;7.80;;;15.60;98.60;;;;;;6095665;23;93434;-75
2023/04/07 11:27:22;;;;;;;8.73;7.82;;;15.60;99.10;;;;;;6095974;23;92721;-75
2023/04/07 11:29:49;;;;;;;9.40;8.00;;;15.70;99.30;;;;;;6045300;23;92367;-76
2023/04/07 11:32:25;;;;;;;9.25;8.45;;;15.90;99.30;;;;;;6069871;23;93060;-75
2023/04/07 11:34:52;;;;;;;9.05;8.15;;;16.00;98.90;;;;;;6043751;23;96610;-75
2023/04/07 11:37:27;;;;;;;9.05;8.23;;;16.10;98.80;;;;;;6045187;23;95105;-75
2023/04/07 11:39:55;;;;;;;8.60;7.75;;;16.30;98.30;;;;;;6095683;23;92429;-75
2023/04/07 11:42:31;;;;;;;8.82;7.97;;;16.30;97.80;;;;;;6068893;23;92440;-75
2023/04/07 11:44:59;;;;;;;9.05;8.25;;;16.30;97.70;;;;;;6069272;23;95888;-75
2023/04/07 11:47:37;;;;;;;8.63;7.82;;;16.40;97.80;;;;;;6094895;23;106021;-75
2023/04/07 11:50:05;;;;;;;8.35;7.32;;;16.50;97.70;;;;;;6069561;23;92502;-75
2023/04/07 11:52:46;;;;;;;10.25;7.40;;;16.50;97.60;;;;;;6069482;23;92221;-75
2023/04/07 11:55:17;;;;;;;8.77;7.88;;;16.50;97.20;;;;;;6069476;23;93282;-75
2023/04/07 11:57:47;;;;;;;9.05;8.23;;;16.50;97.50;;;;;;6068857;23;95497;-75
2023/04/07 12:00:14;;;;;;;8.30;6.50;;;16.30;96.90;;;;;;6067984;23;94913;-75
2023/04/07 12:02:41;;;;;;;8.43;7.60;;;16.20;97.10;;;;;;6069814;23;92437;-75
2023/04/07 12:05:09;;;;;;;8.73;7.97;;;16.20;97.40;;;;;;6068943;23;96232;-75
2023/04/07 12:07:37;;;;;;;8.80;7.93;;;16.30;97.20;;;;;;6094731;23;93041;-75
2023/04/07 12:10:21;;;;;;;8.82;8.02;;;16.30;97.30;;;;;;6095490;23;92521;-75
2023/04/07 12:12:48;;;;;;;8.82;7.72;;;16.20;97.30;;;;;;6044902;23;92477;-75
2023/04/07 12:15:15;;;;;;;9.10;8.30;;;16.10;97.20;;;;;;6095032;23;93301;-75
2023/04/07 12:17:47;;;;;;;9.55;7.63;;;15.90;97.50;;;;;;6045143;23;95552;-75
2023/04/07 12:20:15;;;;;;;9.05;7.10;;;15.90;97.70;;;;;;6095514;23;92412;-75
2023/04/07 12:22:42;;;;;;;8.48;7.72;;;15.80;97.40;;;;;;6095476;23;92441;-75
2023/04/07 12:25:09;;;;;;;7.13;6.53;;;15.80;97.50;;;;;;6067596;23;95615;-75
2023/04/07 12:27:36;;;;;;;7.32;6.63;;;15.80;97.40;;;;;;6044846;23;96049;-75
2023/04/07 12:30:10;;;;;;;6.95;6.35;;;16.00;97.20;;;;;;6095671;23;92448;-75
2023/04/07 12:32:37;;;;;;;5.93;5.50;;;16.10;97.20;;;;;;6068248;23;100971;-76
2023/04/07 12:35:05;;;;;;;6.75;6.13;;;16.20;97.10;;;;;;6068710;23;94572;-75
2023/04/07 12:37:32;;;;;;;7.15;6.45;;;16.30;96.50;;;;;;6044584;23;93990;-76
2023/04/07 12:39:59;;;;;;;7.28;6.57;;;16.40;96.00;;;;;;6095292;23;92297;-75
2023/04/07 12:42:26;;;;;;;7.57;6.93;;;16.30;95.10;;;;;;6069071;23;91887;-75
2023/04/07 12:44:53;;;;;;;7.93;7.22;;;16.30;95.40;;;;;;6095167;23;93201;-75
2023/04/07 12:47:20;;;;;;;9.05;7.47;;;16.30;95.00;;;;;;6094615;23;92663;-75